Time;durP1;ratioP1;P1;durP2;ratioP2;P2;SDS_P1;SDS_P2;PMS_P1;PMS_P2;Temp;Humidity;BMP_temperature;BMP_pressure;BME280_temperature;BME280_humidity;BME280_pressure;Samples;Min_cycle;Max_cycle;Signal;HPM_P1;HPM_P2
2023/01/13 00:01:31;;;;;;;7.40;3.90;;;;;;;5.53;71.94;97094.88;108810;1253;99926;-73
2023/01/13 00:04:00;;;;;;;6.30;4.60;;;;;;;5.55;71.78;97091.64;108790;1254;94292;-73
2023/01/13 00:06:28;;;;;;;7.70;4.10;;;;;;;5.57;71.82;97098.11;108825;1252;94269;-74
2023/01/13 00:08:56;;;;;;;6.60;3.70;;;;;;;5.59;71.68;97094.80;108588;1254;101845;-73
2023/01/13 00:11:25;;;;;;;7.20;4.10;;;;;;;5.60;71.72;97090.33;108634;1254;101040;-72
2023/01/13 00:13:53;;;;;;;7.10;4.20;;;;;;;5.59;71.75;97090.64;108801;1252;99909;-74
2023/01/13 00:16:22;;;;;;;5.60;3.80;;;;;;;5.57;71.69;97086.21;108827;1254;94777;-72
2023/01/13 00:18:51;;;;;;;7.60;3.40;;;;;;;5.57;71.65;97086.88;108831;1253;94386;-73
2023/01/13 00:21:24;;;;;;;6.80;3.60;;;;;;;5.58;71.67;97091.21;108602;1254;102060;-72
2023/01/13 00:23:55;;;;;;;6.10;3.70;;;;;;;5.60;71.60;97087.08;108841;1254;101846;-72
2023/01/13 00:26:25;;;;;;;4.40;3.20;;;;;;;5.62;71.69;97087.39;108782;1253;99521;-71
2023/01/13 00:28:58;;;;;;;5.20;3.00;;;;;;;5.62;71.50;97084.64;108800;1253;94262;-73
2023/01/13 00:31:27;;;;;;;8.30;3.30;;;;;;;5.63;71.50;97080.48;108805;1254;94648;-75
2023/01/13 00:34:00;;;;;;;5.40;3.40;;;;;;;5.65;71.50;97080.02;108837;1252;102209;-73
2023/01/13 00:36:30;;;;;;;5.70;3.30;;;;;;;5.67;71.44;97078.02;108842;1253;101306;-72
2023/01/13 00:38:58;;;;;;;5.40;3.10;;;;;;;5.68;71.47;97077.52;108775;1252;99809;-72
2023/01/13 00:41:27;;;;;;;6.80;3.00;;;;;;;5.67;71.38;97072.63;108480;1254;94559;-73
2023/01/13 00:43:56;;;;;;;4.40;2.70;;;;;;;5.68;71.30;97074.89;108662;1252;94588;-75
2023/01/13 00:46:24;;;;;;;5.00;2.90;;;;;;;5.70;71.34;97075.16;108685;1251;239772;-73
2023/01/13 00:48:53;;;;;;;7.30;3.20;;;;;;;5.72;71.26;97077.00;108848;1253;101006;-73
2023/01/13 00:51:21;;;;;;;5.40;2.60;;;;;;;5.74;71.13;97079.13;108818;1253;100202;-73
2023/01/13 00:53:51;;;;;;;3.90;2.70;;;;;;;5.75;71.11;97074.61;108702;1252;94517;-73
2023/01/13 00:56:24;;;;;;;4.10;2.60;;;;;;;5.77;71.21;97074.23;108824;1254;94460;-73
2023/01/13 00:58:55;;;;;;;5.80;2.80;;;;;;;5.78;71.17;97073.75;108874;1254;102250;-73
2023/01/13 01:01:24;;;;;;;4.30;3.10;;;;;;;5.79;71.03;97071.16;108792;1253;101222;-73
2023/01/13 01:03:54;;;;;;;5.30;3.00;;;;;;;5.79;71.03;97072.55;108817;1253;100054;-73
2023/01/13 01:06:25;;;;;;;4.70;2.60;;;;;;;5.78;70.97;97067.86;108790;1254;94465;-73
2023/01/13 01:08:54;;;;;;;6.50;3.00;;;;;;;5.78;70.96;97063.54;108829;1254;94573;-74
2023/01/13 01:11:28;;;;;;;4.60;2.90;;;;;;;5.78;71.00;97062.09;108885;1254;102189;-72
2023/01/13 01:13:59;;;;;;;5.70;2.90;;;;;;;5.79;70.97;97057.02;108827;1256;101066;-72
2023/01/13 01:16:29;;;;;;;3.80;2.60;;;;;;;5.79;70.99;97057.84;108814;1253;99834;-75
2023/01/13 01:18:57;;;;;;;4.70;2.70;;;;;;;5.80;70.83;97057.81;108825;1252;94508;-73
2023/01/13 01:21:27;;;;;;;7.30;3.20;;;;;;;5.79;70.80;97053.64;108812;1254;94448;-74
2023/01/13 01:23:56;;;;;;;3.60;2.70;;;;;;;5.79;70.82;97054.17;108842;1253;102342;-73
2023/01/13 01:26:26;;;;;;;9.60;2.90;;;;;;;5.78;70.79;97047.87;108841;1252;101247;-73
2023/01/13 01:28:54;;;;;;;6.00;3.10;;;;;;;5.77;70.79;97049.89;108795;1253;99192;-72
2023/01/13 01:31:25;;;;;;;5.40;3.00;;;;;;;5.79;70.86;97047.10;108804;1254;94607;-75
2023/01/13 01:33:55;;;;;;;6.00;3.10;;;;;;;5.80;70.82;97041.90;108807;1253;94434;-74
2023/01/13 01:36:25;;;;;;;4.70;2.90;;;;;;;5.77;70.82;97034.09;108892;1254;102241;-74
2023/01/13 01:38:56;;;;;;;3.70;2.60;;;;;;;5.74;70.86;97037.27;108849;1254;101238;-75
2023/01/13 01:41:26;;;;;;;4.30;2.70;;;;;;;5.72;70.88;97032.38;108769;1253;100104;-74
2023/01/13 01:43:59;;;;;;;5.00;2.70;;;;;;;5.70;70.88;97035.23;108750;1254;94197;-73
2023/01/13 01:46:32;;;;;;;3.00;2.40;;;;;;;5.70;70.96;97034.61;108834;1254;94205;-74
2023/01/13 01:49:06;;;;;;;7.40;3.20;;;;;;;5.69;71.03;97032.71;108876;1252;100923;-72
2023/01/13 01:51:39;;;;;;;5.10;2.70;;;;;;;5.66;71.02;97030.96;108865;1253;100152;-73
2023/01/13 01:54:12;;;;;;;3.90;2.80;;;;;;;5.64;71.04;97032.71;108817;1252;99995;-73
2023/01/13 01:56:44;;;;;;;3.30;2.30;;;;;;;5.63;71.12;97028.74;108825;1252;94152;-73
2023/01/13 01:59:13;;;;;;;4.10;2.60;;;;;;;5.64;71.16;97024.64;108801;1254;94734;-73
2023/01/13 02:01:43;;;;;;;4.00;3.00;;;;;;;5.65;71.17;97018.09;108809;1253;101336;-73
2023/01/13 02:04:26;;;;;;;3.60;2.70;;;;;;;5.67;71.11;97014.37;108884;1253;101877;-72
2023/01/13 02:06:55;;;;;;;4.30;2.50;;;;;;;5.70;71.15;97008.63;108809;1252;99869;-73
2023/01/13 02:09:25;;;;;;;4.50;3.00;;;;;;;5.73;71.12;97005.48;108844;1253;94209;-72
2023/01/13 02:14:41;;;;;;;5.10;2.70;;;;;;;5.75;71.01;97000.70;108889;1252;102390;-73
2023/01/13 02:17:21;;;;;;;5.10;2.70;;;;;;;5.74;71.02;96995.70;108813;1254;101406;-73
2023/01/13 02:20:11;;;;;;;4.00;2.60;;;;;;;5.72;70.95;96995.09;108845;1252;99024;-73
2023/01/13 02:22:38;;;;;;;4.30;2.70;;;;;;;5.69;71.03;96993.53;108808;1253;94295;-73
2023/01/13 02:25:15;;;;;;;3.00;2.40;;;;;;;5.65;71.03;96991.13;108867;1252;94265;-73
2023/01/13 02:27:52;;;;;;;3.90;2.90;;;;;;;5.63;71.02;96991.14;108852;1254;102133;-74
2023/01/13 02:34:01;;;;;;;3.80;2.40;;;;;;;5.59;71.26;96980.12;108261;1259;100154;-74
2023/01/13 02:37:03;;;;;;;5.40;2.50;;;;;;;5.58;71.19;96976.32;108219;1259;94284;-73
2023/01/13 02:39:39;;;;;;;4.40;2.10;;;;;;;5.57;71.21;96971.95;107566;1267;94569;-73
2023/01/13 02:45:42;;;;;;;4.20;2.20;;;;;;;5.55;71.33;96972.06;107838;1266;101273;-73
2023/01/13 02:48:12;;;;;;;5.80;2.60;;;;;;;5.51;71.27;96968.98;107108;1272;101162;-73
2023/01/13 02:50:50;;;;;;;4.90;2.80;;;;;;;5.47;71.29;96963.90;107359;1272;94669;-74
2023/01/13 02:53:24;;;;;;;5.60;2.70;;;;;;;5.44;71.37;96956.38;107228;1271;95754;-73
2023/01/13 02:55:54;;;;;;;3.30;2.40;;;;;;;5.41;71.37;96952.49;107370;1272;102225;-74
2023/01/13 02:58:29;;;;;;;3.80;2.10;;;;;;;5.40;71.44;96958.45;107419;1271;101401;-73
2023/01/13 03:00:57;;;;;;;5.70;2.80;;;;;;;5.42;71.46;96958.77;107337;1272;98564;-73
2023/01/13 03:03:26;;;;;;;5.00;2.60;;;;;;;5.44;71.44;96959.46;107190;1271;94365;-72
2023/01/13 03:06:05;;;;;;;4.90;2.30;;;;;;;5.48;71.43;96959.20;107362;1272;94696;-73
2023/01/13 03:08:46;;;;;;;5.60;2.80;;;;;;;5.50;71.45;96959.45;107330;1271;101873;-73
2023/01/13 03:11:17;;;;;;;5.20;2.30;;;;;;;5.52;71.31;96951.33;107420;1267;100480;-73
2023/01/13 03:14:16;;;;;;;4.10;2.20;;;;;;;5.55;71.39;96948.13;107821;1267;100033;-73
2023/01/13 03:17:13;;;;;;;4.60;2.60;;;;;;;5.56;71.30;96950.64;107491;1267;94660;-73
2023/01/13 03:19:41;;;;;;;4.80;2.40;;;;;;;5.54;71.17;96949.39;107834;1267;94476;-73
2023/01/13 03:22:23;;;;;;;4.90;2.90;;;;;;;5.49;71.18;96945.55;107829;1266;102336;-73
2023/01/13 03:25:00;;;;;;;3.00;2.60;;;;;;;5.43;71.29;96944.88;108013;1264;101356;-74
2023/01/13 03:28:00;;;;;;;7.30;3.70;;;;;;;5.40;71.27;96945.68;108083;1261;99082;-73
2023/01/13 03:30:39;;;;;;;3.00;2.40;;;;;;;5.39;71.33;96950.98;107832;1266;94892;-72
2023/01/13 03:33:21;;;;;;;5.10;2.90;;;;;;;5.40;71.41;96945.27;107875;1266;94654;-73
2023/01/13 03:35:54;;;;;;;5.10;2.70;;;;;;;5.39;71.43;96949.77;107852;1266;102384;-74
2023/01/13 03:38:29;;;;;;;5.80;2.60;;;;;;;5.35;71.45;96947.88;107850;1266;101461;-73
2023/01/13 03:41:19;;;;;;;8.10;3.20;;;;;;;5.34;71.39;96948.69;107838;1267;100343;-72
2023/01/13 03:47:03;;;;;;;6.40;3.60;;;;;;;5.35;71.35;96946.77;107141;1273;94829;-72
2023/01/13 03:49:44;;;;;;;4.50;3.00;;;;;;;5.36;71.43;96944.96;107176;1273;102222;-73
2023/01/13 03:52:22;;;;;;;5.30;3.30;;;;;;;5.39;71.39;96945.66;107182;1273;101381;-73
2023/01/13 03:55:07;;;;;;;7.10;4.40;;;;;;;5.41;71.34;96944.80;107471;1267;100271;-72
2023/01/13 03:57:43;;;;;;;10.20;4.50;;;;;;;5.41;71.18;96945.90;107576;1267;94615;-73
2023/01/13 04:00:13;;;;;;;6.70;4.30;;;;;;;5.41;71.18;96941.79;107871;1266;95799;-73
2023/01/13 04:03:05;;;;;;;7.20;4.40;;;;;;;5.43;71.09;96939.56;107189;1267;101415;-75
2023/01/13 04:05:39;;;;;;;7.30;4.20;;;;;;;5.45;71.03;96941.14;107839;1266;101334;-73
2023/01/13 04:08:28;;;;;;;7.60;4.20;;;;;;;5.47;70.94;96941.12;108030;1261;100105;-73
2023/01/13 04:11:05;;;;;;;5.90;3.60;;;;;;;5.45;71.04;96935.98;108100;1261;94226;-72
2023/01/13 04:13:39;;;;;;;6.40;4.10;;;;;;;5.43;70.95;96935.30;108149;1261;94755;-73
2023/01/13 04:16:08;;;;;;;6.80;4.60;;;;;;;5.43;70.99;96935.04;108120;1261;102271;-74
2023/01/13 04:18:38;;;;;;;8.10;4.20;;;;;;;5.46;70.94;96929.41;108139;1261;101387;-74
2023/01/13 04:21:08;;;;;;;8.90;4.20;;;;;;;5.46;70.88;96928.48;108316;1253;99979;-74
2023/01/13 04:23:36;;;;;;;8.10;4.00;;;;;;;5.48;70.85;96934.30;108730;1253;94387;-73
2023/01/13 04:26:04;;;;;;;6.80;4.40;;;;;;;5.52;71.05;96936.77;108735;1253;94885;-73
2023/01/13 04:28:33;;;;;;;8.50;4.70;;;;;;;5.54;70.96;96933.79;108739;1253;102094;-72
2023/01/13 04:31:01;;;;;;;9.60;4.70;;;;;;;5.51;70.85;96932.44;108472;1253;100633;-72
2023/01/13 04:33:29;;;;;;;9.80;4.40;;;;;;;5.49;70.99;96937.27;108792;1252;100061;-74
2023/01/13 04:35:58;;;;;;;7.20;4.10;;;;;;;5.49;71.03;96942.43;108835;1253;94210;-73
2023/01/13 04:38:26;;;;;;;6.30;4.20;;;;;;;5.49;71.05;96943.17;108848;1253;94429;-73
2023/01/13 04:40:54;;;;;;;6.60;4.20;;;;;;;5.49;70.96;96944.98;108801;1254;101962;-73
2023/01/13 04:43:22;;;;;;;10.70;4.70;;;;;;;5.49;70.94;96947.41;108846;1252;101179;-74
2023/01/13 04:45:50;;;;;;;6.80;4.40;;;;;;;5.47;71.02;96953.06;108790;1252;99774;-72
2023/01/13 04:48:18;;;;;;;10.00;5.80;;;;;;;5.45;71.10;96952.92;108550;1252;94395;-73
2023/01/13 04:50:46;;;;;;;7.60;5.00;;;;;;;5.46;71.20;96949.96;108815;1252;94561;-73
2023/01/13 04:53:15;;;;;;;7.20;4.80;;;;;;;5.47;71.05;96946.56;108655;1253;102095;-72
2023/01/13 04:55:44;;;;;;;7.20;4.20;;;;;;;5.49;71.14;96944.57;108933;1251;101151;-73
2023/01/13 04:58:12;;;;;;;8.80;5.10;;;;;;;5.54;71.10;96943.55;108865;1251;108740;-72
2023/01/13 05:00:40;;;;;;;6.50;4.40;;;;;;;5.58;71.16;96944.82;108865;1251;94272;-73
2023/01/13 05:03:08;;;;;;;7.40;3.80;;;;;;;5.62;70.97;96944.37;108898;1251;94638;-73
2023/01/13 05:05:36;;;;;;;5.70;3.40;;;;;;;5.64;71.02;96943.90;108845;1250;110850;-73
2023/01/13 05:08:05;;;;;;;8.80;3.50;;;;;;;5.67;71.04;96939.15;108835;1252;101310;-74
2023/01/13 05:10:33;;;;;;;7.20;3.70;;;;;;;5.69;71.11;96933.09;108824;1251;99841;-73
2023/01/13 05:18:44;;;;;;;6.20;3.50;;;;;;;5.75;71.07;96933.74;108398;1256;101895;-73
2023/01/13 05:26:40;;;;;;;6.30;3.70;;;;;;;5.78;70.95;96941.27;108328;1256;94342;-73
2023/01/13 05:29:08;;;;;;;6.40;4.10;;;;;;;5.78;70.98;96943.99;108414;1256;95344;-73
2023/01/13 05:31:36;;;;;;;5.90;3.50;;;;;;;5.76;70.93;96944.71;108365;1256;101981;-72
2023/01/13 05:34:05;;;;;;;7.00;3.90;;;;;;;5.76;70.81;96942.94;108369;1256;101267;-73
2023/01/13 05:36:33;;;;;;;5.90;3.30;;;;;;;5.78;70.81;96942.30;108174;1256;99680;-74
2023/01/13 05:39:01;;;;;;;5.20;3.40;;;;;;;5.79;70.94;96944.75;108350;1259;94353;-74
2023/01/13 05:44:15;;;;;;;5.90;3.90;;;;;;;5.78;70.93;96938.19;108266;1256;102100;-73
2023/01/13 05:46:43;;;;;;;6.30;3.90;;;;;;;5.79;70.74;96941.20;108370;1257;109789;-75
2023/01/13 05:49:11;;;;;;;7.00;4.00;;;;;;;5.78;70.85;96947.30;108390;1256;100363;-75
2023/01/13 05:51:39;;;;;;;8.70;4.40;;;;;;;5.79;70.76;96950.55;108333;1256;94339;-73
2023/01/13 05:54:07;;;;;;;6.90;4.10;;;;;;;5.80;70.77;96949.45;108826;1251;94292;-73
2023/01/13 05:56:35;;;;;;;6.50;4.10;;;;;;;5.78;70.63;96953.83;108684;1251;102329;-74
2023/01/13 05:59:03;;;;;;;7.30;4.30;;;;;;;5.76;70.68;96958.10;108713;1251;101441;-73
2023/01/13 06:01:32;;;;;;;7.00;4.50;;;;;;;5.73;70.69;96959.92;108720;1251;98933;-74
2023/01/13 06:04:00;;;;;;;7.00;4.20;;;;;;;5.71;70.69;96958.57;108889;1251;94222;-73
2023/01/13 06:06:28;;;;;;;7.00;3.90;;;;;;;5.71;70.67;96964.80;108913;1251;94588;-73
2023/01/13 06:08:56;;;;;;;7.20;4.10;;;;;;;5.72;70.72;96964.89;108786;1251;101952;-72
2023/01/13 06:11:24;;;;;;;6.90;4.00;;;;;;;5.72;70.58;96962.58;108856;1251;101160;-73
2023/01/13 06:13:52;;;;;;;5.40;3.60;;;;;;;5.69;70.56;96962.39;108656;1253;99968;-75
2023/01/13 06:16:20;;;;;;;6.50;4.00;;;;;;;5.67;70.64;96961.77;108918;1251;94211;-74
2023/01/13 06:18:49;;;;;;;6.40;4.10;;;;;;;5.67;70.61;96959.84;108934;1251;94975;-73
2023/01/13 06:21:17;;;;;;;6.30;4.60;;;;;;;5.66;70.56;96959.28;108895;1251;102122;-73
2023/01/13 06:23:45;;;;;;;12.40;8.20;;;;;;;5.63;70.61;96959.75;108900;1251;101286;-72
2023/01/13 06:26:20;;;;;;;10.40;7.50;;;;;;;5.57;70.48;96961.21;108893;1251;100053;-73
2023/01/13 06:28:48;;;;;;;6.30;4.80;;;;;;;5.52;70.62;96958.20;108554;1251;94644;-74
2023/01/13 06:31:17;;;;;;;8.20;5.20;;;;;;;5.46;70.81;96957.95;108888;1251;94958;-72
2023/01/13 06:33:51;;;;;;;6.60;4.70;;;;;;;5.45;70.83;96955.96;108869;1251;102324;-73
2023/01/13 06:36:50;;;;;;;8.40;4.90;;;;;;;5.44;70.75;96949.98;108872;1251;101344;-72
2023/01/13 06:39:22;;;;;;;7.30;4.80;;;;;;;5.41;70.87;96942.45;108848;1251;99579;-73
2023/01/13 06:44:39;;;;;;;11.00;5.10;;;;;;;5.39;71.08;96945.63;108873;1251;94648;-73
2023/01/13 06:47:08;;;;;;;9.70;6.20;;;;;;;5.38;71.00;96946.58;108894;1251;102251;-74
2023/01/13 06:49:36;;;;;;;10.60;6.10;;;;;;;5.40;71.01;96945.02;108853;1251;101274;-73
2023/01/13 06:52:04;;;;;;;9.10;5.80;;;;;;;5.40;71.01;96943.73;108848;1251;100072;-73
2023/01/13 06:54:33;;;;;;;10.50;6.00;;;;;;;5.38;71.09;96948.73;108438;1251;95230;-72
2023/01/13 06:57:02;;;;;;;10.20;5.40;;;;;;;5.33;71.00;96951.86;108911;1251;94664;-73
2023/01/13 06:59:33;;;;;;;10.90;6.50;;;;;;;5.30;71.29;96955.83;108930;1250;102354;-73
2023/01/13 07:02:01;;;;;;;8.60;5.70;;;;;;;5.29;71.36;96954.38;108913;1250;101401;-73
2023/01/13 07:04:29;;;;;;;8.00;5.50;;;;;;;5.22;71.22;96953.41;108741;1251;100128;-73
2023/01/13 07:06:57;;;;;;;12.70;6.80;;;;;;;5.22;71.47;96953.29;108531;1251;94341;-73
2023/01/13 07:09:25;;;;;;;13.80;6.50;;;;;;;5.26;71.50;96950.84;108853;1251;95101;-72
2023/01/13 07:11:53;;;;;;;7.20;4.10;;;;;;;5.29;71.51;96957.75;108741;1250;102427;-73
2023/01/13 07:17:12;;;;;;;6.80;3.80;;;;;;;5.41;71.49;96962.45;108329;1256;99914;-74
2023/01/13 07:19:40;;;;;;;5.90;3.40;;;;;;;5.51;71.49;96963.49;108375;1256;94647;-73
2023/01/13 07:22:09;;;;;;;7.40;4.00;;;;;;;5.58;71.42;96963.84;108360;1256;94722;-73
2023/01/13 07:24:37;;;;;;;7.80;4.90;;;;;;;5.64;71.25;96957.86;108283;1256;101149;-73
2023/01/13 07:27:05;;;;;;;7.50;4.70;;;;;;;5.72;71.15;96960.11;108413;1256;101323;-73
2023/01/13 07:29:33;;;;;;;5.80;3.80;;;;;;;5.78;71.17;96960.98;108373;1256;109725;-73
2023/01/13 07:32:01;;;;;;;5.70;3.50;;;;;;;5.82;71.06;96955.77;108359;1256;95318;-73
2023/01/13 07:34:29;;;;;;;6.00;3.90;;;;;;;5.86;70.92;96960.66;108411;1256;94655;-73
2023/01/13 07:36:57;;;;;;;6.70;3.80;;;;;;;5.88;70.85;96963.09;108245;1257;102329;-73
2023/01/13 07:39:26;;;;;;;8.80;5.20;;;;;;;5.88;70.75;96962.72;108204;1257;101630;-72
2023/01/13 07:44:39;;;;;;;8.30;6.40;;;;;;;5.93;70.77;96954.06;108359;1256;94247;-73
2023/01/13 07:47:09;;;;;;;8.70;6.20;;;;;;;5.97;70.63;96950.98;108396;1256;94397;-73
2023/01/13 07:49:37;;;;;;;12.50;6.10;;;;;;;6.02;70.58;96951.48;108281;1257;102166;-74
2023/01/13 07:52:05;;;;;;;11.00;6.50;;;;;;;6.04;70.65;96949.55;108290;1258;101474;-73
2023/01/13 07:54:33;;;;;;;10.00;6.00;;;;;;;6.08;70.56;96948.34;108619;1251;100027;-74
2023/01/13 07:57:01;;;;;;;6.30;5.10;;;;;;;6.09;70.55;96949.30;108737;1252;94288;-73
2023/01/13 07:59:29;;;;;;;5.20;3.80;;;;;;;6.12;70.49;96953.50;108784;1252;94412;-73
2023/01/13 08:01:58;;;;;;;7.90;4.10;;;;;;;6.18;70.41;96958.16;108832;1252;102277;-72
2023/01/13 08:04:26;;;;;;;8.80;4.50;;;;;;;6.24;70.32;96957.95;108805;1252;101654;-73
2023/01/13 08:06:54;;;;;;;5.50;3.70;;;;;;;6.30;70.31;96959.89;108758;1252;100128;-74
2023/01/13 08:09:22;;;;;;;6.80;3.70;;;;;;;6.37;70.28;96957.39;108827;1252;94495;-73
2023/01/13 08:13:16;;;;;;;6.20;3.90;;;;;;;6.43;70.12;96956.52;108781;1253;94606;-73
2023/01/13 08:14:42;;;;;;;6.20;3.40;;;;;;;6.50;69.91;96953.30;108765;1253;102085;-73
2023/01/13 08:17:11;;;;;;;6.10;3.80;;;;;;;6.55;69.83;96951.77;108773;1251;101420;-72
2023/01/13 08:19:39;;;;;;;5.60;3.80;;;;;;;6.61;69.67;96952.80;108741;1252;99974;-72
2023/01/13 08:22:07;;;;;;;6.50;3.40;;;;;;;6.67;69.54;96953.86;108757;1252;94260;-73
2023/01/13 08:24:35;;;;;;;8.80;4.60;;;;;;;6.72;69.43;96958.93;108833;1252;94361;-73
2023/01/13 08:27:03;;;;;;;7.70;4.30;;;;;;;6.77;69.38;96955.77;108751;1252;102209;-74
2023/01/13 08:29:32;;;;;;;7.60;3.50;;;;;;;6.81;69.15;96954.10;108832;1252;102096;-74
2023/01/13 08:32:00;;;;;;;10.80;3.90;;;;;;;6.86;69.08;96955.84;108576;1252;99656;-75
2023/01/13 08:34:28;;;;;;;7.40;3.80;;;;;;;6.90;68.86;96959.23;108791;1252;94411;-73
2023/01/13 08:36:56;;;;;;;7.00;3.90;;;;;;;6.93;68.87;96962.75;108824;1252;95177;-73
2023/01/13 08:39:24;;;;;;;7.00;3.10;;;;;;;6.97;68.72;96965.58;108756;1253;102029;-74
2023/01/13 08:41:57;;;;;;;5.80;3.90;;;;;;;7.01;68.70;96970.38;108779;1252;101319;-73
2023/01/13 08:44:30;;;;;;;7.00;4.10;;;;;;;7.04;68.69;96967.99;108576;1252;108106;-73
2023/01/13 08:46:59;;;;;;;6.80;3.80;;;;;;;7.07;68.61;96967.90;108765;1252;94241;-73
2023/01/13 08:49:27;;;;;;;5.70;3.80;;;;;;;7.12;68.41;96967.37;108837;1251;94531;-74
2023/01/13 08:51:55;;;;;;;8.30;4.20;;;;;;;7.18;68.43;96964.10;108940;1250;102160;-73
2023/01/13 08:54:24;;;;;;;6.00;3.40;;;;;;;7.24;68.35;96960.98;108635;1251;102431;-73
2023/01/13 08:56:52;;;;;;;6.20;3.50;;;;;;;7.31;68.14;96951.38;108523;1253;99675;-73
2023/01/13 08:59:20;;;;;;;7.20;3.30;;;;;;;7.36;68.11;96946.19;108816;1251;94365;-74
2023/01/13 09:01:49;;;;;;;8.00;3.80;;;;;;;7.42;68.14;96942.98;108552;1252;94664;-74
2023/01/13 09:04:21;;;;;;;6.00;3.00;;;;;;;7.48;67.88;96940.06;108878;1250;101785;-74
2023/01/13 09:06:50;;;;;;;4.00;2.90;;;;;;;7.51;67.64;96942.83;108913;1251;101274;-73
2023/01/13 09:09:19;;;;;;;4.90;3.40;;;;;;;7.55;67.71;96939.99;108530;1251;99993;-73
2023/01/13 09:14:38;;;;;;;5.60;3.00;;;;;;;7.65;68.00;96948.58;108923;1251;95161;-73
2023/01/13 09:17:07;;;;;;;4.80;3.00;;;;;;;7.72;67.92;96949.48;108934;1251;101425;-73
2023/01/13 09:19:36;;;;;;;3.40;2.40;;;;;;;7.74;67.45;96939.89;108879;1251;100554;-74
2023/01/13 09:22:04;;;;;;;4.80;2.20;;;;;;;7.76;67.36;96936.52;108830;1251;99947;-74
2023/01/13 09:24:32;;;;;;;4.00;2.50;;;;;;;7.81;67.12;96930.62;108599;1251;94276;-73
2023/01/13 09:27:00;;;;;;;3.80;2.70;;;;;;;7.87;66.96;96928.08;108860;1251;94528;-73
2023/01/13 09:29:28;;;;;;;5.40;2.60;;;;;;;7.93;67.07;96928.64;108880;1252;101199;-73
2023/01/13 09:31:57;;;;;;;5.50;3.10;;;;;;;8.01;67.13;96931.33;108695;1252;101482;-75
2023/01/13 09:37:11;;;;;;;6.70;3.30;;;;;;;8.13;66.51;96928.60;108874;1251;94239;-73
2023/01/13 09:39:39;;;;;;;6.30;2.50;;;;;;;8.16;66.34;96925.00;108884;1251;94679;-73
2023/01/13 09:45:19;;;;;;;6.60;2.90;;;;;;;8.25;66.19;96925.81;108877;1251;101323;-75
2023/01/13 09:48:02;;;;;;;4.90;2.50;;;;;;;8.31;65.95;96921.23;108591;1251;99907;-73
2023/01/13 09:50:55;;;;;;;6.50;2.70;;;;;;;8.41;65.89;96928.02;108894;1251;94253;-73
2023/01/13 09:53:32;;;;;;;4.40;3.10;;;;;;;8.52;65.97;96926.64;108907;1251;94262;-75
2023/01/13 09:56:01;;;;;;;6.80;3.10;;;;;;;8.63;65.98;96926.66;108953;1250;102262;-74
2023/01/13 09:58:29;;;;;;;9.60;3.70;;;;;;;8.76;65.75;96924.56;108684;1251;101899;-74
2023/01/13 10:01:29;;;;;;;6.70;3.60;;;;;;;8.88;65.45;96919.80;108886;1251;100117;-74
2023/01/13 10:04:04;;;;;;;9.90;3.70;;;;;;;9.09;65.12;96918.71;108896;1253;94676;-73
2023/01/13 10:06:37;;;;;;;7.30;4.10;;;;;;;9.33;64.92;96910.73;108908;1251;94553;-73
2023/01/13 10:09:06;;;;;;;8.20;4.30;;;;;;;9.64;64.61;96910.71;108816;1253;102177;-75
2023/01/13 10:14:31;;;;;;;6.60;3.50;;;;;;;10.18;64.07;96909.48;108858;1251;100148;-74
2023/01/13 10:17:14;;;;;;;9.10;4.20;;;;;;;10.39;63.63;96909.94;108909;1251;94180;-74
2023/01/13 10:20:07;;;;;;;6.40;3.70;;;;;;;10.53;63.17;96902.20;108894;1251;94627;-74
2023/01/13 10:22:47;;;;;;;8.80;4.40;;;;;;;10.61;62.68;96902.73;108930;1251;101910;-73
2023/01/13 10:25:21;;;;;;;6.70;3.80;;;;;;;10.62;62.43;96903.31;108935;1251;101541;-74
2023/01/13 10:27:52;;;;;;;6.50;4.00;;;;;;;10.61;61.95;96905.11;108872;1251;99591;-74
2023/01/13 10:30:33;;;;;;;6.30;4.00;;;;;;;10.57;61.87;96900.83;108884;1253;94218;-74
2023/01/13 10:33:14;;;;;;;6.80;3.20;;;;;;;10.63;61.86;96897.57;108920;1251;94334;-75
2023/01/13 10:35:53;;;;;;;7.70;4.10;;;;;;;10.71;61.54;96897.16;108888;1251;101829;-74
2023/01/13 10:38:35;;;;;;;8.80;4.50;;;;;;;10.71;61.31;96893.50;108915;1251;102041;-74
2023/01/13 10:41:17;;;;;;;7.60;3.90;;;;;;;10.74;61.42;96889.41;108911;1251;99664;-74
2023/01/13 10:43:51;;;;;;;8.70;4.00;;;;;;;10.77;61.11;96887.98;108862;1251;94282;-75
2023/01/13 10:46:20;;;;;;;8.00;4.00;;;;;;;10.76;60.90;96880.61;108926;1251;94271;-74
2023/01/13 10:49:03;;;;;;;5.00;3.60;;;;;;;10.74;60.87;96874.14;108898;1251;101967;-73
2023/01/13 10:51:44;;;;;;;7.80;3.50;;;;;;;10.78;60.79;96866.79;108951;1251;101443;-74
2023/01/13 10:54:12;;;;;;;6.00;3.60;;;;;;;10.76;60.03;96861.30;108629;1251;98786;-74
2023/01/13 10:56:43;;;;;;;5.70;3.30;;;;;;;10.68;60.17;96859.39;108905;1251;94176;-73
2023/01/13 10:59:21;;;;;;;7.20;4.20;;;;;;;10.65;60.23;96848.88;108614;1251;94401;-74
2023/01/13 11:02:01;;;;;;;5.80;3.40;;;;;;;10.66;60.29;96855.63;108857;1251;101902;-74
2023/01/13 11:04:36;;;;;;;10.50;4.10;;;;;;;10.61;59.86;96850.22;108896;1251;101312;-73
2023/01/13 11:07:17;;;;;;;7.20;4.00;;;;;;;10.55;59.77;96848.62;108890;1251;100132;-75
2023/01/13 11:09:46;;;;;;;10.40;5.70;;;;;;;10.53;59.94;96849.14;108821;1251;94169;-75
2023/01/13 11:12:34;;;;;;;9.40;4.50;;;;;;;10.47;59.73;96847.96;108871;1251;95112;-74
2023/01/13 11:15:09;;;;;;;5.80;3.00;;;;;;;10.42;59.89;96842.08;108813;1251;102211;-75
2023/01/13 11:17:49;;;;;;;8.00;3.10;;;;;;;10.39;59.84;96836.21;108682;1250;101587;-73
2023/01/13 11:20:46;;;;;;;9.30;4.20;;;;;;;10.38;59.98;96828.33;108924;1251;100286;-74
2023/01/13 11:23:37;;;;;;;3.80;2.90;;;;;;;10.35;59.95;96823.11;108254;1259;94637;-74
2023/01/13 11:26:32;;;;;;;6.50;3.00;;;;;;;10.31;60.03;96822.86;108273;1259;96068;-74
2023/01/13 11:29:09;;;;;;;5.10;3.20;;;;;;;10.29;59.88;96823.65;108269;1259;102331;-74
2023/01/13 11:31:54;;;;;;;8.10;3.70;;;;;;;10.27;59.82;96818.15;108238;1259;101266;-73
2023/01/13 11:34:32;;;;;;;4.70;3.20;;;;;;;10.29;60.04;96815.44;108219;1259;99874;-75
2023/01/13 11:37:03;;;;;;;5.20;2.90;;;;;;;10.29;60.00;96815.20;108245;1259;94295;-73
2023/01/13 11:39:55;;;;;;;6.30;2.80;;;;;;;10.27;59.96;96816.00;108267;1259;94294;-73
2023/01/13 11:42:29;;;;;;;8.90;3.40;;;;;;;10.26;59.71;96818.03;108278;1259;101812;-73
2023/01/13 11:45:16;;;;;;;8.10;3.60;;;;;;;10.24;59.77;96810.70;108243;1259;101581;-73
2023/01/13 11:47:49;;;;;;;7.00;3.90;;;;;;;10.25;59.75;96805.10;108240;1259;99990;-74
2023/01/13 11:50:50;;;;;;;8.40;4.80;;;;;;;10.28;59.79;96803.67;108217;1259;94357;-73
2023/01/13 11:53:34;;;;;;;8.30;3.90;;;;;;;10.30;59.73;96803.15;107886;1268;95322;-73
2023/01/13 11:56:27;;;;;;;4.90;2.90;;;;;;;10.27;59.59;96802.20;107782;1265;103363;-74
2023/01/13 11:59:40;;;;;;;7.30;3.60;;;;;;;10.22;59.42;96803.33;107895;1265;101277;-73
2023/01/13 12:02:27;;;;;;;5.50;2.70;;;;;;;10.17;59.32;96801.27;107797;1267;100093;-75
2023/01/13 12:05:04;;;;;;;6.40;2.50;;;;;;;10.10;59.28;96801.18;107798;1266;94347;-73
2023/01/13 12:07:55;;;;;;;5.30;2.30;;;;;;;10.05;59.13;96794.98;107817;1266;94355;-75
2023/01/13 12:10:51;;;;;;;5.80;2.50;;;;;;;9.97;59.30;96802.91;107823;1268;102416;-74
2023/01/13 12:13:29;;;;;;;4.20;2.30;;;;;;;9.87;59.22;96798.08;107779;1266;101302;-74
2023/01/13 12:16:06;;;;;;;3.50;2.20;;;;;;;9.83;59.07;96793.34;107815;1267;100027;-74
2023/01/13 12:18:42;;;;;;;4.90;2.40;;;;;;;9.80;58.94;96783.27;107810;1267;94422;-75
2023/01/13 12:21:24;;;;;;;4.10;2.30;;;;;;;9.70;59.15;96781.48;107822;1267;94457;-73
2023/01/13 12:24:04;;;;;;;5.00;2.40;;;;;;;9.63;59.15;96782.20;107695;1267;101688;-76
2023/01/13 12:26:40;;;;;;;3.40;2.40;;;;;;;9.57;59.29;96784.61;107832;1267;100135;-74
2023/01/13 12:29:17;;;;;;;3.40;1.90;;;;;;;9.55;59.29;96780.30;107740;1267;100087;-75
2023/01/13 12:31:48;;;;;;;3.40;2.40;;;;;;;9.54;59.29;96781.54;108117;1259;94730;-75
2023/01/13 12:34:47;;;;;;;7.10;2.10;;;;;;;9.53;59.18;96776.83;108274;1259;94306;-74
2023/01/13 12:37:35;;;;;;;4.20;2.30;;;;;;;9.52;59.36;96774.80;108250;1259;102121;-75
2023/01/13 12:40:06;;;;;;;4.30;2.20;;;;;;;9.51;59.36;96776.42;108828;1251;101094;-75
2023/01/13 12:45:31;;;;;;;5.00;2.30;;;;;;;9.46;59.25;96780.55;108665;1251;255711;-75